createdAt,value
2023-04-29T00:00:15.810Z,5.77
2023-04-29T00:02:44.728Z,5.33
2023-04-29T00:05:13.663Z,4.33
2023-04-29T00:07:43.023Z,5.30
2023-04-29T00:10:14.769Z,4.53
2023-04-29T00:12:44.584Z,3.87
2023-04-29T00:15:13.438Z,9.47
2023-04-29T00:17:41.972Z,4.70
2023-04-29T00:20:12.633Z,3.93
2023-04-29T00:22:40.961Z,4.63
2023-04-29T00:25:10.834Z,4.07
2023-04-29T00:27:39.488Z,4.33
2023-04-29T00:30:10.818Z,3.87
2023-04-29T00:32:39.367Z,3.73
2023-04-29T00:35:08.491Z,3.97
2023-04-29T00:37:37.329Z,4.13
2023-04-29T00:40:07.279Z,4.00
2023-04-29T00:42:35.758Z,4.70
2023-04-29T00:45:04.819Z,4.80
2023-04-29T00:47:36.171Z,4.03
2023-04-29T00:50:05.270Z,3.60
2023-04-29T00:52:34.341Z,3.97
2023-04-29T00:55:03.759Z,3.20
2023-04-29T00:57:32.262Z,3.67
2023-04-29T01:00:01.622Z,3.20
2023-04-29T01:02:30.486Z,3.37
2023-04-29T01:05:00.356Z,3.63
2023-04-29T01:07:37.675Z,2.90
2023-04-29T01:10:12.542Z,3.03
2023-04-29T01:12:47.880Z,3.80
2023-04-29T01:15:23.757Z,5.03
2023-04-29T01:18:01.287Z,3.30
2023-04-29T01:20:33.478Z,4.00
2023-04-29T01:23:02.016Z,2.87
2023-04-29T01:25:32.421Z,3.13
2023-04-29T01:28:22.779Z,2.93
2023-04-29T01:30:58.315Z,3.10
2023-04-29T01:33:41.769Z,3.30
2023-04-29T01:36:23.700Z,3.40
2023-04-29T01:39:06.316Z,2.63
2023-04-29T01:41:44.702Z,2.70
2023-04-29T01:44:25.741Z,4.13
2023-04-29T01:46:55.427Z,2.43
2023-04-29T01:49:30.158Z,2.60
2023-04-29T01:51:58.552Z,2.73
2023-04-29T01:54:27.159Z,2.53
2023-04-29T01:56:58.669Z,2.60
2023-04-29T01:59:38.687Z,2.30
2023-04-29T02:02:15.325Z,2.60
2023-04-29T02:04:53.358Z,3.67
2023-04-29T02:07:21.944Z,2.40
2023-04-29T02:09:50.687Z,2.17
2023-04-29T02:12:21.497Z,3.10
2023-04-29T02:14:53.530Z,3.10
2023-04-29T02:17:22.118Z,3.27
2023-04-29T02:19:50.886Z,2.10
2023-04-29T02:22:19.491Z,2.67
2023-04-29T02:24:47.975Z,2.20
2023-04-29T02:27:16.337Z,2.83
2023-04-29T02:29:46.114Z,2.47
2023-04-29T02:32:16.064Z,2.40
2023-04-29T02:34:44.803Z,2.13
2023-04-29T02:37:13.301Z,2.10
2023-04-29T02:39:41.925Z,2.93
2023-04-29T02:42:10.251Z,2.83
2023-04-29T02:44:38.686Z,2.77
2023-04-29T02:47:08.512Z,2.60
2023-04-29T02:49:37.205Z,2.80
2023-04-29T02:52:05.983Z,3.10
2023-04-29T02:54:36.465Z,3.27
2023-04-29T02:57:05.066Z,3.10
2023-04-29T02:59:33.727Z,3.40
2023-04-29T03:02:03.075Z,5.63
2023-04-29T03:04:32.992Z,6.90
2023-04-29T03:07:01.550Z,4.43
2023-04-29T03:09:30.829Z,5.70
2023-04-29T03:11:59.220Z,6.17
2023-04-29T03:14:27.683Z,6.40
2023-04-29T03:16:56.586Z,6.00
2023-04-29T03:19:25.152Z,8.90
2023-04-29T03:21:54.926Z,7.53
2023-04-29T03:24:23.578Z,6.90
2023-04-29T03:26:52.012Z,9.20
2023-04-29T03:29:22.237Z,8.00
2023-04-29T03:31:50.664Z,8.33
2023-04-29T03:34:19.249Z,12.23
2023-04-29T03:36:57.529Z,8.33
2023-04-29T03:39:25.949Z,8.40
2023-04-29T03:41:54.382Z,7.40
2023-04-29T03:44:24.139Z,8.20
2023-04-29T03:46:52.550Z,7.10
2023-04-29T03:49:24.816Z,8.40
2023-04-29T03:51:53.666Z,7.60
2023-04-29T03:54:23.414Z,8.57
2023-04-29T03:56:51.814Z,8.80
2023-04-29T03:59:20.502Z,8.30
2023-04-29T04:01:50.288Z,8.77
2023-04-29T04:04:18.927Z,8.70
2023-04-29T04:06:51.740Z,9.47
2023-04-29T04:09:23.872Z,8.30
2023-04-29T04:11:52.251Z,9.90
2023-04-29T04:14:21.243Z,9.63
2023-04-29T04:16:50.719Z,10.90
2023-04-29T04:19:19.429Z,10.30
2023-04-29T04:21:48.018Z,10.53
2023-04-29T04:24:16.391Z,11.47
2023-04-29T04:26:46.173Z,9.83
2023-04-29T04:29:28.573Z,10.60
2023-04-29T04:32:02.789Z,13.57
2023-04-29T04:34:32.498Z,11.90
2023-04-29T04:37:02.921Z,12.10
2023-04-29T04:39:32.549Z,11.60
2023-04-29T04:42:03.805Z,12.13
2023-04-29T04:44:34.410Z,12.27
2023-04-29T04:47:11.570Z,11.80
2023-04-29T04:49:59.650Z,11.63
2023-04-29T04:52:28.326Z,11.33
2023-04-29T04:55:19.432Z,12.27
2023-04-29T04:57:52.643Z,13.53
2023-04-29T05:00:21.289Z,13.47
2023-04-29T05:02:49.793Z,13.77
2023-04-29T05:05:18.515Z,11.40
2023-04-29T05:07:46.909Z,12.63
2023-04-29T05:10:15.654Z,13.07
2023-04-29T05:12:49.586Z,13.10
2023-04-29T05:15:19.684Z,11.60
2023-04-29T05:17:51.091Z,10.90
2023-04-29T05:20:20.468Z,10.93
2023-04-29T05:22:48.881Z,11.30
2023-04-29T05:25:18.080Z,12.67
2023-04-29T05:27:46.546Z,11.00
2023-04-29T05:30:19.789Z,10.47
2023-04-29T05:32:48.830Z,9.60
2023-04-29T05:35:19.446Z,8.77
2023-04-29T05:37:47.846Z,10.63
2023-04-29T05:40:33.880Z,8.80
2023-04-29T05:43:18.805Z,6.90
2023-04-29T05:45:49.726Z,8.60
2023-04-29T05:48:18.433Z,8.20
2023-04-29T05:50:48.220Z,6.73
2023-04-29T05:53:16.571Z,7.53
2023-04-29T05:55:46.780Z,7.73
2023-04-29T05:58:16.392Z,7.97
2023-04-29T06:00:45.363Z,7.50
2023-04-29T06:03:21.823Z,7.40
2023-04-29T06:05:56.385Z,8.10
2023-04-29T06:08:48.385Z,6.87
2023-04-29T06:11:21.208Z,6.70
2023-04-29T06:13:49.563Z,7.23
2023-04-29T06:16:18.166Z,8.13
2023-04-29T06:18:47.912Z,7.77
2023-04-29T06:21:16.868Z,6.77
2023-04-29T06:23:45.323Z,8.63
2023-04-29T06:26:19.209Z,6.93
2023-04-29T06:28:47.728Z,7.53
2023-04-29T06:31:17.604Z,7.93
2023-04-29T06:33:47.721Z,7.97
2023-04-29T06:36:17.465Z,7.40
2023-04-29T06:39:08.952Z,6.10
2023-04-29T06:41:56.657Z,6.37
2023-04-29T06:44:40.860Z,6.70
2023-04-29T06:47:35.016Z,6.80
2023-04-29T06:50:14.899Z,7.00
2023-04-29T06:52:45.377Z,7.47
2023-04-29T06:55:13.831Z,8.13
2023-04-29T06:57:44.019Z,6.70
2023-04-29T07:00:16.054Z,7.20
2023-04-29T07:02:44.490Z,5.43
2023-04-29T07:05:14.699Z,6.43
2023-04-29T07:07:44.782Z,6.93
2023-04-29T07:10:13.148Z,8.90
2023-04-29T07:12:41.544Z,6.73
2023-04-29T07:15:10.970Z,7.00
2023-04-29T07:17:39.444Z,8.87
2023-04-29T07:20:09.721Z,6.73
2023-04-29T07:22:40.806Z,7.97
2023-04-29T07:25:11.130Z,8.13
2023-04-29T07:27:39.675Z,7.87
2023-04-29T07:30:09.360Z,8.20
2023-04-29T07:32:38.254Z,8.40
2023-04-29T07:35:07.731Z,7.87
2023-04-29T07:37:36.093Z,8.57
2023-04-29T07:40:09.146Z,7.80
2023-04-29T07:42:39.238Z,9.00
2023-04-29T07:45:09.745Z,8.60
2023-04-29T07:47:38.137Z,7.83
2023-04-29T07:50:08.385Z,8.23
2023-04-29T07:52:36.865Z,8.57
2023-04-29T07:55:07.495Z,8.23
2023-04-29T07:57:36.118Z,7.67
2023-04-29T08:00:04.930Z,8.10
2023-04-29T08:02:44.102Z,6.53
2023-04-29T08:05:15.428Z,7.50
2023-04-29T08:07:44.115Z,6.33
2023-04-29T08:10:13.902Z,6.77
2023-04-29T08:12:42.389Z,6.80
2023-04-29T08:15:11.352Z,6.90
2023-04-29T08:17:40.204Z,5.67
2023-04-29T08:20:10.145Z,6.80
2023-04-29T08:22:38.588Z,6.77
2023-04-29T08:25:08.130Z,7.10
2023-04-29T08:27:37.986Z,10.20
2023-04-29T08:30:08.250Z,6.20
2023-04-29T08:32:36.886Z,7.13
2023-04-29T08:35:05.930Z,7.10
2023-04-29T08:37:34.296Z,5.80
2023-04-29T08:40:03.629Z,7.20
2023-04-29T08:42:37.752Z,6.87
2023-04-29T08:45:07.399Z,7.70
2023-04-29T08:47:35.934Z,6.80
2023-04-29T08:50:07.485Z,8.57
2023-04-29T08:52:36.114Z,6.47
2023-04-29T08:55:05.582Z,6.87
2023-04-29T08:57:40.352Z,6.47
2023-04-29T09:00:11.288Z,6.63
2023-04-29T09:02:47.282Z,5.80
2023-04-29T09:05:16.003Z,6.80
2023-04-29T09:07:46.389Z,7.93
2023-04-29T09:10:15.248Z,6.87
2023-04-29T09:12:44.915Z,7.43
2023-04-29T09:15:13.704Z,6.93
2023-04-29T09:17:43.593Z,7.17
2023-04-29T09:20:31.780Z,6.50
2023-04-29T09:23:03.008Z,5.90
2023-04-29T09:25:32.573Z,6.67
2023-04-29T09:28:16.934Z,6.77
2023-04-29T09:30:48.506Z,7.40
2023-04-29T09:33:17.343Z,8.97
2023-04-29T09:35:47.125Z,9.20
2023-04-29T09:38:17.701Z,7.20
2023-04-29T09:40:57.750Z,6.30
2023-04-29T09:43:28.592Z,6.00
2023-04-29T09:45:57.054Z,6.13
2023-04-29T09:48:35.484Z,5.57
2023-04-29T09:51:05.875Z,6.00
2023-04-29T09:53:38.009Z,5.90
2023-04-29T09:56:07.429Z,5.40
2023-04-29T09:58:38.333Z,5.20
2023-04-29T10:01:08.288Z,7.17
2023-04-29T10:03:38.992Z,4.70
2023-04-29T10:06:09.596Z,5.07
2023-04-29T10:08:38.154Z,6.30
2023-04-29T10:11:06.957Z,6.33
2023-04-29T10:13:38.943Z,5.47
2023-04-29T10:16:19.246Z,5.40
2023-04-29T10:18:55.239Z,5.07
2023-04-29T10:21:29.514Z,5.33
2023-04-29T10:24:00.137Z,4.97
2023-04-29T10:26:30.240Z,5.07
2023-04-29T10:29:01.576Z,5.00
2023-04-29T10:31:31.454Z,4.57
2023-04-29T10:34:01.859Z,4.50
2023-04-29T10:36:31.585Z,3.73
2023-04-29T10:39:04.149Z,4.00
2023-04-29T10:41:38.976Z,3.43
2023-04-29T10:44:08.849Z,3.83
2023-04-29T10:46:38.008Z,3.97
2023-04-29T10:49:07.870Z,3.60
2023-04-29T10:51:41.931Z,2.87
2023-04-29T10:54:14.562Z,4.13
2023-04-29T10:56:46.456Z,2.97
2023-04-29T10:59:18.447Z,2.60
2023-04-29T11:01:50.031Z,2.77
2023-04-29T11:04:19.893Z,3.70
2023-04-29T11:06:53.678Z,3.43
2023-04-29T11:09:26.364Z,3.80
2023-04-29T11:12:03.366Z,2.90
2023-04-29T11:14:39.730Z,4.40
2023-04-29T11:17:11.976Z,5.00
2023-04-29T11:19:45.063Z,5.00
2023-04-29T11:22:26.424Z,4.77
2023-04-29T11:24:57.988Z,3.83
2023-04-29T11:27:28.734Z,3.77
2023-04-29T11:30:00.565Z,3.90
2023-04-29T11:32:31.137Z,3.10
2023-04-29T11:35:10.517Z,2.97
2023-04-29T11:37:40.008Z,3.63
2023-04-29T11:40:09.941Z,4.20
2023-04-29T11:42:42.831Z,3.60
2023-04-29T11:45:13.502Z,3.70
2023-04-29T11:47:46.235Z,4.70
2023-04-29T11:50:16.954Z,3.50
2023-04-29T11:52:50.241Z,3.60
2023-04-29T11:55:19.958Z,4.00
2023-04-29T11:57:51.200Z,6.47
2023-04-29T12:00:21.499Z,4.20
2023-04-29T12:02:50.224Z,5.13
2023-04-29T12:05:19.635Z,4.40
2023-04-29T12:07:50.437Z,4.47
2023-04-29T12:10:19.019Z,4.17
2023-04-29T12:12:47.496Z,4.80
2023-04-29T12:15:16.396Z,3.70
2023-04-29T12:17:47.248Z,3.20
2023-04-29T12:20:16.506Z,4.03
2023-04-29T12:22:44.909Z,4.00
2023-04-29T12:25:13.297Z,3.47
2023-04-29T12:27:43.049Z,3.63
2023-04-29T12:30:12.663Z,4.13
2023-04-29T12:32:42.604Z,4.00
2023-04-29T12:35:18.600Z,4.23
2023-04-29T12:37:50.796Z,3.50
2023-04-29T12:40:20.457Z,4.10
2023-04-29T12:42:49.450Z,3.50
2023-04-29T12:45:35.778Z,3.37
2023-04-29T12:48:08.754Z,2.97
2023-04-29T12:50:42.178Z,3.53
2023-04-29T12:53:11.815Z,3.37
2023-04-29T12:55:40.279Z,3.17
2023-04-29T12:58:09.534Z,3.30
2023-04-29T13:00:38.466Z,3.70
2023-04-29T13:03:07.456Z,3.30
2023-04-29T13:05:36.412Z,4.00
2023-04-29T13:08:07.041Z,3.00
2023-04-29T13:10:35.648Z,4.83
2023-04-29T13:13:04.104Z,4.20
2023-04-29T13:15:33.309Z,3.70
2023-04-29T13:18:02.085Z,3.83
2023-04-29T13:20:30.719Z,3.20
2023-04-29T13:22:59.279Z,2.80
2023-04-29T13:25:29.084Z,2.90
2023-04-29T13:27:57.466Z,3.20
2023-04-29T13:30:25.945Z,3.90
2023-04-29T13:32:57.139Z,4.80
2023-04-29T13:35:31.558Z,7.13
2023-04-29T13:38:01.227Z,3.10
2023-04-29T13:40:31.307Z,3.70
2023-04-29T13:43:05.961Z,4.03
2023-04-29T13:45:39.862Z,4.33
2023-04-29T13:48:24.688Z,6.63
2023-04-29T14:01:26.071Z,4.90
2023-04-29T14:03:55.065Z,4.60
2023-04-29T14:06:23.582Z,5.03
2023-04-29T14:08:51.977Z,6.43
2023-04-29T14:11:21.708Z,5.43
2023-04-29T14:13:50.081Z,5.20
2023-04-29T14:16:18.723Z,4.23
2023-04-29T14:18:47.089Z,3.67
2023-04-29T14:21:15.417Z,4.40
2023-04-29T14:23:43.778Z,5.93
2023-04-29T14:26:27.028Z,5.03
2023-04-29T14:28:58.435Z,4.50
2023-04-29T14:31:29.262Z,4.77
2023-04-29T14:33:58.768Z,4.50
2023-04-29T14:36:28.253Z,5.10
2023-04-29T14:38:56.886Z,5.47
2023-04-29T14:41:25.649Z,4.13
2023-04-29T14:43:53.986Z,5.07
2023-04-29T14:46:24.950Z,4.50
2023-04-29T14:48:53.356Z,4.33
2023-04-29T14:51:21.693Z,5.10
2023-04-29T14:53:50.049Z,6.20
2023-04-29T14:56:18.555Z,5.90
2023-04-29T14:58:46.921Z,7.83
2023-04-29T15:01:15.324Z,6.77
2023-04-29T15:03:45.371Z,6.07
2023-04-29T15:06:14.414Z,5.90
2023-04-29T15:08:42.882Z,5.87
2023-04-29T15:11:11.331Z,4.70
2023-04-29T15:13:39.806Z,3.70
2023-04-29T15:16:08.952Z,6.17
2023-04-29T15:18:37.372Z,3.53
2023-04-29T15:21:07.658Z,2.87
2023-04-29T15:23:36.152Z,2.90
2023-04-29T15:26:04.862Z,2.47
2023-04-29T15:28:33.162Z,2.40
2023-04-29T15:31:03.663Z,3.53
2023-04-29T15:33:33.077Z,2.10
2023-04-29T15:36:01.534Z,2.17
2023-04-29T15:38:31.338Z,2.20
2023-04-29T15:41:01.159Z,1.83
2023-04-29T15:43:29.910Z,2.73
2023-04-29T15:46:00.065Z,1.90
2023-04-29T15:48:28.595Z,2.30
2023-04-29T15:50:57.012Z,2.40
2023-04-29T15:53:25.350Z,3.40
2023-04-29T15:55:55.731Z,2.33
2023-04-29T15:58:24.131Z,3.57
2023-04-29T16:00:52.980Z,4.10
2023-04-29T16:03:21.448Z,4.60
2023-04-29T16:05:51.334Z,6.93
2023-04-29T16:08:19.707Z,6.03
2023-04-29T16:10:49.696Z,5.87
2023-04-29T16:13:19.515Z,5.90
2023-04-29T16:15:47.904Z,6.13
2023-04-29T16:18:17.576Z,6.87
2023-04-29T16:20:46.067Z,6.83
2023-04-29T16:23:14.405Z,6.93
2023-04-29T16:25:43.026Z,6.63
2023-04-29T16:28:11.524Z,7.90
2023-04-29T16:30:41.696Z,8.17
2023-04-29T16:33:09.991Z,8.50
2023-04-29T16:35:38.591Z,7.80
2023-04-29T16:38:06.925Z,9.50
2023-04-29T16:40:35.690Z,11.10
2023-04-29T16:43:04.066Z,8.60
2023-04-29T16:45:32.610Z,10.03
2023-04-29T16:48:02.781Z,9.30
2023-04-29T16:50:31.439Z,9.70
2023-04-29T16:52:59.853Z,8.90
2023-04-29T16:55:28.279Z,9.40
2023-04-29T16:57:56.808Z,9.07
2023-04-29T17:00:25.474Z,9.43
2023-04-29T17:02:54.242Z,11.60
2023-04-29T17:05:24.108Z,8.50
2023-04-29T17:07:52.724Z,8.77
2023-04-29T17:10:21.343Z,9.17
2023-04-29T17:12:49.747Z,10.20
2023-04-29T17:15:18.284Z,10.47
2023-04-29T17:17:46.786Z,8.20
2023-04-29T17:20:16.378Z,9.33
2023-04-29T17:22:46.138Z,10.37
2023-04-29T17:25:15.674Z,9.70
2023-04-29T17:27:45.713Z,11.13
2023-04-29T17:30:14.878Z,10.80
2023-04-29T17:32:44.455Z,10.23
2023-04-29T17:35:12.948Z,10.70
2023-04-29T17:37:41.314Z,10.97
2023-04-29T17:40:12.847Z,9.90
2023-04-29T17:42:41.811Z,10.50
2023-04-29T17:45:11.919Z,12.07
2023-04-29T17:47:40.443Z,11.30
2023-04-29T17:50:10.001Z,11.57
2023-04-29T17:52:38.358Z,11.67
2023-04-29T17:55:08.226Z,12.70
2023-04-29T17:57:38.329Z,11.97
2023-04-29T18:00:08.537Z,12.50
2023-04-29T18:02:37.240Z,13.93
2023-04-29T18:05:06.672Z,10.90
2023-04-29T18:07:35.117Z,13.20
2023-04-29T18:10:03.597Z,13.67
2023-04-29T18:12:31.919Z,13.27
2023-04-29T18:15:02.079Z,12.10
2023-04-29T18:17:30.601Z,13.50
2023-04-29T18:19:59.063Z,12.60
2023-04-29T18:22:27.431Z,12.13
2023-04-29T18:24:57.955Z,11.73
2023-04-29T18:27:28.234Z,12.73
2023-04-29T18:29:56.864Z,12.40
2023-04-29T18:32:26.659Z,12.70
2023-04-29T18:34:56.442Z,13.30
2023-04-29T18:37:25.059Z,13.47
2023-04-29T18:39:53.708Z,12.70
2023-04-29T18:42:22.346Z,14.53
2023-04-29T18:44:51.428Z,12.20
2023-04-29T18:47:20.501Z,13.77
2023-04-29T18:49:50.188Z,12.10
2023-04-29T18:52:18.849Z,13.23
2023-04-29T18:54:47.182Z,13.07
2023-04-29T18:57:15.722Z,12.97
2023-04-29T18:59:44.044Z,13.17
2023-04-29T19:02:12.428Z,13.90
2023-04-29T19:04:40.942Z,13.37
2023-04-29T19:07:11.246Z,13.10
2023-04-29T19:09:39.575Z,14.00
2023-04-29T19:12:08.536Z,13.30
2023-04-29T19:14:38.485Z,13.73
2023-04-29T19:17:06.979Z,16.23
2023-04-29T19:19:35.384Z,14.50
2023-04-29T19:22:05.331Z,17.33
2023-04-29T19:24:36.920Z,14.33
2023-04-29T19:27:06.170Z,13.10
2023-04-29T19:29:34.570Z,14.17
2023-04-29T19:32:03.607Z,13.03
2023-04-29T19:34:31.977Z,13.93
2023-04-29T19:37:01.120Z,16.40
2023-04-29T19:39:29.548Z,14.53
2023-04-29T19:41:59.265Z,13.83
2023-04-29T19:44:27.716Z,13.53
2023-04-29T19:46:56.208Z,13.93
2023-04-29T19:49:24.570Z,14.50
2023-04-29T19:51:52.932Z,13.60
2023-04-29T19:54:21.397Z,15.67
2023-04-29T19:56:49.761Z,13.67
2023-04-29T19:59:19.419Z,15.57
2023-04-29T20:01:48.733Z,14.10
2023-04-29T20:04:17.823Z,15.80
2023-04-29T20:06:46.392Z,14.20
2023-04-29T20:09:15.492Z,17.63
2023-04-29T20:11:43.936Z,16.27
2023-04-29T20:14:12.611Z,14.60
2023-04-29T20:16:42.493Z,13.30
2023-04-29T20:19:11.857Z,16.30
2023-04-29T20:21:40.473Z,16.23
2023-04-29T20:24:08.908Z,15.50
2023-04-29T20:26:37.277Z,15.67
2023-04-29T20:29:05.690Z,14.93
2023-04-29T20:31:34.180Z,14.80
2023-04-29T20:34:03.858Z,16.17
2023-04-29T20:36:32.304Z,15.23
2023-04-29T20:39:01.060Z,15.23
2023-04-29T20:41:29.654Z,15.97
2023-04-29T20:43:58.649Z,16.00
2023-04-29T20:46:29.487Z,14.90
2023-04-29T20:48:57.825Z,15.10
2023-04-29T20:51:27.817Z,16.60
2023-04-29T20:53:56.290Z,14.93
2023-04-29T20:56:24.763Z,15.70
2023-04-29T20:58:53.366Z,15.93
2023-04-29T21:01:21.782Z,17.87
2023-04-29T21:03:50.274Z,15.70
2023-04-29T21:06:18.811Z,13.93
2023-04-29T21:08:48.837Z,16.17
2023-04-29T21:11:17.212Z,14.73
2023-04-29T21:13:49.951Z,15.50
2023-04-29T21:16:18.700Z,15.33
2023-04-29T21:18:47.483Z,15.53
2023-04-29T21:21:15.856Z,16.07
2023-04-29T21:23:44.523Z,15.90
2023-04-29T21:26:15.062Z,15.80
2023-04-29T21:28:43.546Z,16.27
2023-04-29T21:31:16.214Z,15.47
2023-04-29T21:33:45.140Z,15.23
2023-04-29T21:36:14.044Z,15.10
2023-04-29T21:38:43.140Z,15.63
2023-04-29T21:41:22.619Z,16.13
2023-04-29T21:43:51.870Z,17.73
2023-04-29T21:46:21.212Z,14.97
2023-04-29T21:48:50.017Z,14.97
2023-04-29T21:51:19.263Z,16.40
2023-04-29T21:53:47.666Z,16.50
2023-04-29T21:56:17.430Z,14.80
2023-04-29T21:58:46.219Z,16.40
2023-04-29T22:01:27.596Z,16.27
2023-04-29T22:03:59.598Z,16.17
2023-04-29T22:06:28.003Z,18.37
2023-04-29T22:08:56.377Z,16.20
2023-04-29T22:11:26.173Z,15.47
2023-04-29T22:13:54.582Z,17.70
2023-04-29T22:16:23.983Z,16.33
2023-04-29T22:18:52.462Z,16.00
2023-04-29T22:21:21.036Z,17.93
2023-04-29T22:23:50.293Z,16.73
2023-04-29T22:26:18.701Z,17.93
2023-04-29T22:28:48.452Z,18.10
2023-04-29T22:31:16.793Z,17.57
2023-04-29T22:33:45.161Z,18.03
2023-04-29T22:36:13.563Z,17.67
2023-04-29T22:38:41.994Z,17.30
2023-04-29T22:41:11.743Z,17.13
2023-04-29T22:43:40.132Z,17.67
2023-04-29T22:46:10.054Z,17.00
2023-04-29T22:48:38.484Z,17.43
2023-04-29T22:51:07.194Z,17.00
2023-04-29T22:53:35.542Z,18.37
2023-04-29T22:56:04.015Z,19.50
2023-04-29T22:58:33.736Z,18.40
2023-04-29T23:01:02.437Z,18.63
2023-04-29T23:03:32.176Z,19.03
2023-04-29T23:06:01.124Z,18.13
2023-04-29T23:08:29.776Z,18.77
2023-04-29T23:10:58.144Z,19.30
2023-04-29T23:13:26.507Z,20.80
2023-04-29T23:15:57.943Z,19.77
2023-04-29T23:18:26.502Z,18.53
2023-04-29T23:20:57.814Z,19.57
2023-04-29T23:23:26.193Z,19.27
2023-04-29T23:25:54.635Z,19.67
2023-04-29T23:28:24.674Z,19.10
2023-04-29T23:30:54.498Z,19.87
2023-04-29T23:33:23.036Z,20.83
2023-04-29T23:35:51.541Z,19.53
2023-04-29T23:38:21.520Z,20.00
2023-04-29T23:40:49.845Z,21.43
2023-04-29T23:43:19.398Z,19.57
2023-04-29T23:45:47.962Z,21.10
2023-04-29T23:48:17.110Z,20.33
2023-04-29T23:50:47.210Z,19.47
2023-04-29T23:53:15.813Z,21.53
2023-04-29T23:55:45.636Z,20.53
2023-04-29T23:58:14.145Z,22.33
